createdAt,value
2023-05-10T00:00:16.341Z,13.09
2023-05-10T00:02:47.083Z,13.09
2023-05-10T00:05:16.870Z,13.12
2023-05-10T00:07:47.345Z,13.11
2023-05-10T00:10:19.648Z,13.12
2023-05-10T00:12:49.374Z,13.14
2023-05-10T00:15:19.418Z,13.14
2023-05-10T00:17:49.161Z,13.15
2023-05-10T00:20:19.157Z,13.16
2023-05-10T00:22:49.014Z,13.16
2023-05-10T00:25:22.638Z,13.17
2023-05-10T00:27:52.341Z,13.16
2023-05-10T00:30:22.092Z,13.15
2023-05-10T00:32:52.906Z,13.14
2023-05-10T00:35:22.875Z,13.14
2023-05-10T00:37:52.551Z,13.14
2023-05-10T00:40:24.878Z,13.14
2023-05-10T00:42:59.395Z,13.14
2023-05-10T00:45:29.091Z,13.14
2023-05-10T00:48:00.967Z,13.15
2023-05-10T00:50:30.762Z,13.13
2023-05-10T00:53:00.722Z,13.13
2023-05-10T00:55:33.198Z,13.14
2023-05-10T00:58:02.911Z,13.14
2023-05-10T01:00:32.786Z,13.14
2023-05-10T01:03:02.852Z,13.13
2023-05-10T01:05:33.035Z,13.13
2023-05-10T01:08:03.652Z,13.13
2023-05-10T01:10:36.068Z,13.14
2023-05-10T01:13:06.201Z,13.12
2023-05-10T01:15:36.114Z,13.12
2023-05-10T01:18:06.078Z,13.11
2023-05-10T01:20:40.425Z,13.11
2023-05-10T01:23:38.823Z,13.10
2023-05-10T01:26:29.888Z,13.09
2023-05-10T01:29:30.519Z,13.09
2023-05-10T01:32:15.269Z,13.08
2023-05-10T01:34:47.799Z,13.06
2023-05-10T01:37:23.521Z,13.04
2023-05-10T01:39:56.985Z,13.04
2023-05-10T01:42:29.387Z,13.02
2023-05-10T01:45:02.709Z,13.00
2023-05-10T01:47:40.829Z,12.97
2023-05-10T01:50:14.521Z,12.95
2023-05-10T01:52:46.579Z,12.94
2023-05-10T01:55:18.594Z,12.90
2023-05-10T01:57:50.400Z,12.85
2023-05-10T02:00:20.550Z,12.79
2023-05-10T02:02:53.770Z,12.75
2023-05-10T02:05:24.608Z,12.70
2023-05-10T02:07:55.523Z,12.64
2023-05-10T02:10:25.386Z,12.61
2023-05-10T02:12:55.998Z,12.61
2023-05-10T02:15:28.126Z,12.62
2023-05-10T02:18:02.642Z,12.62
2023-05-10T02:20:34.111Z,12.64
2023-05-10T02:23:04.861Z,12.63
2023-05-10T02:25:35.587Z,12.64
2023-05-10T02:28:07.148Z,12.66
2023-05-10T02:30:39.233Z,12.67
2023-05-10T02:33:11.780Z,12.68
2023-05-10T02:35:42.090Z,12.68
2023-05-10T02:38:12.857Z,12.65
2023-05-10T02:40:44.894Z,12.64
2023-05-10T02:43:17.545Z,12.65
2023-05-10T02:45:47.601Z,12.67
2023-05-10T02:48:20.007Z,12.70
2023-05-10T02:50:52.573Z,12.71
2023-05-10T02:53:26.350Z,12.73
2023-05-10T02:55:56.939Z,12.75
2023-05-10T02:58:26.656Z,12.78
2023-05-10T03:00:56.424Z,12.80
2023-05-10T03:03:28.692Z,12.80
2023-05-10T03:05:59.610Z,12.81
2023-05-10T03:08:30.442Z,12.82
2023-05-10T03:11:15.017Z,12.81
2023-05-10T03:13:50.286Z,12.83
2023-05-10T03:16:23.495Z,12.83
2023-05-10T03:19:00.679Z,12.82
2023-05-10T03:21:32.897Z,12.82
2023-05-10T03:24:06.856Z,12.83
2023-05-10T03:26:36.996Z,12.85
2023-05-10T03:29:19.975Z,12.89
2023-05-10T03:31:49.933Z,12.92
2023-05-10T03:34:27.336Z,12.95
2023-05-10T03:36:57.044Z,12.96
2023-05-10T03:39:28.545Z,13.00
2023-05-10T03:42:01.422Z,13.00
2023-05-10T03:44:31.167Z,13.00
2023-05-10T03:47:00.982Z,13.03
2023-05-10T03:49:33.377Z,13.03
2023-05-10T03:52:03.233Z,13.03
2023-05-10T03:54:33.334Z,13.02
2023-05-10T03:57:04.039Z,13.02
2023-05-10T03:59:34.219Z,13.02
2023-05-10T04:02:04.046Z,13.01
2023-05-10T04:04:36.428Z,13.01
2023-05-10T04:07:06.742Z,13.00
2023-05-10T04:09:36.413Z,13.02
2023-05-10T04:12:07.992Z,13.02
2023-05-10T04:14:38.737Z,13.02
2023-05-10T04:17:08.554Z,13.03
2023-05-10T04:19:40.936Z,13.04
2023-05-10T04:22:10.620Z,13.07
2023-05-10T04:24:40.390Z,13.09
2023-05-10T04:27:10.076Z,13.11
2023-05-10T04:29:39.748Z,13.13
2023-05-10T04:32:09.431Z,13.14
2023-05-10T04:34:41.705Z,13.18
2023-05-10T04:37:11.395Z,13.19
2023-05-10T04:39:42.323Z,13.18
2023-05-10T04:42:12.526Z,13.18
2023-05-10T04:44:42.170Z,13.16
2023-05-10T04:47:12.929Z,13.16
2023-05-10T04:49:45.309Z,13.17
2023-05-10T04:52:16.183Z,13.20
2023-05-10T04:54:45.880Z,13.19
2023-05-10T04:57:15.668Z,13.23
2023-05-10T04:59:48.023Z,13.24
2023-05-10T05:02:19.876Z,13.26
2023-05-10T05:04:52.495Z,13.29
2023-05-10T05:07:22.249Z,13.31
2023-05-10T05:09:51.906Z,13.34
2023-05-10T05:12:21.575Z,13.36
2023-05-10T05:14:51.239Z,13.37
2023-05-10T05:17:20.913Z,13.36
2023-05-10T05:19:53.259Z,13.35
2023-05-10T05:22:28.505Z,13.35
2023-05-10T05:24:59.255Z,13.36
2023-05-10T05:27:29.114Z,13.37
2023-05-10T05:29:59.116Z,13.39
2023-05-10T05:32:29.306Z,13.39
2023-05-10T05:35:01.621Z,13.44
2023-05-10T05:37:31.314Z,13.50
2023-05-10T05:40:02.786Z,13.57
2023-05-10T05:42:32.480Z,13.64
2023-05-10T05:45:02.196Z,13.71
2023-05-10T05:47:31.877Z,13.78
2023-05-10T05:50:04.174Z,13.82
2023-05-10T05:52:34.326Z,13.84
2023-05-10T05:55:04.008Z,13.85
2023-05-10T05:57:34.147Z,13.86
2023-05-10T06:00:04.221Z,13.85
2023-05-10T06:02:42.319Z,13.84
2023-05-10T06:05:15.451Z,13.83
2023-05-10T06:07:45.632Z,13.82
2023-05-10T06:10:15.378Z,13.82
2023-05-10T06:12:45.113Z,13.83
2023-05-10T06:15:15.297Z,13.81
2023-05-10T06:17:45.446Z,13.79
2023-05-10T06:20:18.381Z,13.78
2023-05-10T06:22:48.137Z,13.78
2023-05-10T06:25:19.353Z,13.77
2023-05-10T06:27:52.664Z,13.74
2023-05-10T06:30:24.224Z,13.73
2023-05-10T06:32:53.889Z,13.71
2023-05-10T06:35:26.384Z,13.69
2023-05-10T06:37:56.561Z,13.70
2023-05-10T06:40:26.249Z,13.74
2023-05-10T06:42:56.153Z,13.77
2023-05-10T06:45:25.973Z,13.79
2023-05-10T06:47:56.029Z,13.80
2023-05-10T06:50:28.476Z,13.81
2023-05-10T06:52:58.174Z,13.80
2023-05-10T06:55:28.200Z,13.79
2023-05-10T06:57:58.212Z,13.79
2023-05-10T07:00:28.238Z,13.77
2023-05-10T07:02:58.123Z,13.75
2023-05-10T07:05:31.156Z,13.71
2023-05-10T07:08:01.001Z,13.63
2023-05-10T07:10:30.993Z,13.57
2023-05-10T07:13:01.621Z,13.51
2023-05-10T07:15:31.868Z,13.45
2023-05-10T07:18:01.702Z,13.42
2023-05-10T07:20:34.559Z,13.37
2023-05-10T07:23:04.292Z,13.36
2023-05-10T07:25:34.009Z,13.39
2023-05-10T07:28:03.718Z,13.49
2023-05-10T07:30:33.373Z,13.69
2023-05-10T07:33:03.109Z,13.94
2023-05-10T07:35:35.337Z,14.22
2023-05-10T07:38:04.993Z,14.46
2023-05-10T07:40:34.703Z,14.61
2023-05-10T07:43:04.867Z,14.68
2023-05-10T07:45:34.563Z,14.75
2023-05-10T07:48:04.276Z,14.77
2023-05-10T07:50:36.530Z,14.79
2023-05-10T07:53:06.282Z,14.83
2023-05-10T07:55:35.988Z,14.91
2023-05-10T07:58:05.706Z,15.03
2023-05-10T08:00:35.387Z,15.16
2023-05-10T08:03:05.116Z,15.21
2023-05-10T08:05:37.511Z,15.27
2023-05-10T08:08:07.230Z,15.32
2023-05-10T08:10:36.932Z,15.40
2023-05-10T08:13:07.227Z,15.52
2023-05-10T08:15:36.942Z,15.61
2023-05-10T08:18:06.912Z,15.60
2023-05-10T08:20:39.229Z,15.55
2023-05-10T08:23:09.004Z,15.48
2023-05-10T08:25:38.766Z,15.42
2023-05-10T08:28:09.999Z,15.42
2023-05-10T08:30:41.201Z,15.45
2023-05-10T08:33:10.897Z,15.39
2023-05-10T08:35:43.187Z,15.32
2023-05-10T08:38:13.830Z,15.25
2023-05-10T08:40:45.724Z,15.15
2023-05-10T08:43:16.587Z,15.01
2023-05-10T08:45:48.126Z,14.88
2023-05-10T08:48:18.098Z,14.81
2023-05-10T08:50:50.467Z,14.78
2023-05-10T08:53:20.366Z,14.83
2023-05-10T08:55:50.183Z,15.01
2023-05-10T08:58:20.636Z,15.26
2023-05-10T09:00:52.641Z,15.47
2023-05-10T09:03:22.330Z,15.64
2023-05-10T09:05:54.723Z,15.77
2023-05-10T09:08:26.474Z,15.86
2023-05-10T09:10:56.898Z,15.96
2023-05-10T09:13:27.518Z,16.10
2023-05-10T09:15:58.848Z,16.27
2023-05-10T09:18:32.146Z,16.53
2023-05-10T09:21:04.401Z,16.75
2023-05-10T09:23:34.153Z,16.86
2023-05-10T09:26:07.155Z,16.78
2023-05-10T09:28:37.226Z,16.63
2023-05-10T09:31:06.921Z,16.44
2023-05-10T09:33:48.190Z,16.18
2023-05-10T09:36:20.771Z,15.87
2023-05-10T09:38:52.955Z,15.62
2023-05-10T09:41:23.274Z,15.48
2023-05-10T09:43:53.669Z,15.39
2023-05-10T09:46:23.737Z,15.35
2023-05-10T09:48:53.461Z,15.32
2023-05-10T09:51:28.041Z,15.31
2023-05-10T09:54:13.446Z,15.30
2023-05-10T09:56:43.284Z,15.29
2023-05-10T09:59:14.534Z,15.29
2023-05-10T10:01:45.044Z,15.25
2023-05-10T10:04:14.820Z,15.21
2023-05-10T10:06:47.112Z,15.18
2023-05-10T10:09:19.667Z,15.19
2023-05-10T10:11:49.345Z,15.18
2023-05-10T10:14:19.030Z,15.20
2023-05-10T10:16:59.893Z,15.27
2023-05-10T10:19:38.211Z,15.49
2023-05-10T10:22:12.822Z,15.79
2023-05-10T10:24:43.591Z,16.07
2023-05-10T10:27:19.853Z,16.36
2023-05-10T10:29:57.376Z,16.56
2023-05-10T10:35:02.885Z,16.95
2023-05-10T10:37:50.923Z,17.07
2023-05-10T10:40:28.982Z,17.14
2023-05-10T10:42:59.670Z,17.13
2023-05-10T10:45:29.608Z,17.04
2023-05-10T10:48:25.968Z,16.92
2023-05-10T10:51:00.718Z,16.86
2023-05-10T10:53:33.420Z,16.95
2023-05-10T10:56:11.321Z,17.11
2023-05-10T10:58:42.260Z,17.32
2023-05-10T11:01:16.441Z,17.51
2023-05-10T11:04:20.811Z,17.68
2023-05-10T11:06:50.836Z,17.83
2023-05-10T11:09:23.153Z,18.10
2023-05-10T11:11:53.427Z,18.40
2023-05-10T11:14:24.763Z,18.64
2023-05-10T11:16:54.814Z,18.64
2023-05-10T11:19:24.467Z,18.39
2023-05-10T11:21:55.955Z,18.09
2023-05-10T11:24:31.120Z,17.78
2023-05-10T11:27:01.058Z,17.50
2023-05-10T11:29:31.384Z,17.27
2023-05-10T11:32:02.149Z,17.16
2023-05-10T11:34:34.846Z,17.17
2023-05-10T11:37:04.770Z,17.24
2023-05-10T11:39:37.273Z,17.39
2023-05-10T11:42:06.934Z,17.56
2023-05-10T11:44:37.009Z,17.74
2023-05-10T11:47:06.739Z,17.87
2023-05-10T11:49:36.448Z,17.98
2023-05-10T11:52:10.010Z,17.97
2023-05-10T11:54:49.214Z,17.86
2023-05-10T11:57:18.882Z,17.73
2023-05-10T11:59:49.180Z,17.61
2023-05-10T12:02:18.931Z,17.64
2023-05-10T12:04:48.771Z,17.76
2023-05-10T12:07:18.476Z,18.00
2023-05-10T12:10:06.724Z,18.28
2023-05-10T12:12:42.947Z,18.39
2023-05-10T12:15:16.958Z,18.30
2023-05-10T12:17:48.070Z,18.13
2023-05-10T12:20:19.552Z,17.93
2023-05-10T12:22:50.752Z,17.77
2023-05-10T12:25:24.937Z,17.58
2023-05-10T12:27:56.100Z,17.36
2023-05-10T12:30:26.505Z,17.13
2023-05-10T12:32:56.974Z,16.96
2023-05-10T12:35:27.051Z,16.80
2023-05-10T12:37:56.747Z,16.69
2023-05-10T12:40:29.514Z,16.60
2023-05-10T12:42:59.212Z,16.57
2023-05-10T12:45:28.962Z,16.61
2023-05-10T12:47:58.634Z,16.66
2023-05-10T12:50:28.351Z,16.75
2023-05-10T12:52:58.114Z,16.82
2023-05-10T12:55:30.388Z,16.84
2023-05-10T12:58:00.073Z,16.80
2023-05-10T13:00:29.880Z,16.74
2023-05-10T13:02:59.624Z,16.68
2023-05-10T13:05:29.309Z,16.62
2023-05-10T13:07:59.073Z,16.58
2023-05-10T13:10:32.979Z,16.59
2023-05-10T13:13:02.621Z,16.60
2023-05-10T13:15:32.543Z,16.62
2023-05-10T13:18:02.379Z,16.64
2023-05-10T13:20:32.127Z,16.69
2023-05-10T13:23:01.804Z,16.73
2023-05-10T13:25:35.657Z,16.73
2023-05-10T13:28:05.173Z,16.74
2023-05-10T13:30:34.972Z,16.69
2023-05-10T13:33:04.702Z,16.67
2023-05-10T13:35:34.405Z,16.67
2023-05-10T13:38:04.321Z,16.67
2023-05-10T13:40:37.086Z,16.62
2023-05-10T13:43:06.801Z,16.55
2023-05-10T13:45:36.851Z,16.46
2023-05-10T13:48:07.014Z,16.42
2023-05-10T13:50:36.711Z,16.40
2023-05-10T13:53:06.551Z,16.44
2023-05-10T13:55:38.809Z,16.52
2023-05-10T13:58:08.446Z,16.66
2023-05-10T14:00:38.086Z,16.88
2023-05-10T14:03:10.243Z,17.11
2023-05-10T14:05:40.215Z,17.29
2023-05-10T14:08:10.539Z,17.48
2023-05-10T14:10:43.073Z,17.67
2023-05-10T14:13:13.337Z,17.91
2023-05-10T14:15:43.065Z,18.15
2023-05-10T14:18:12.740Z,18.40
2023-05-10T14:20:42.403Z,18.61
2023-05-10T14:23:12.343Z,18.76
2023-05-10T14:25:44.856Z,18.87
2023-05-10T14:28:15.563Z,18.94
2023-05-10T14:30:45.226Z,18.99
2023-05-10T14:33:14.909Z,19.01
2023-05-10T14:35:44.555Z,19.02
2023-05-10T14:38:14.520Z,18.97
2023-05-10T14:40:46.867Z,18.94
2023-05-10T14:43:16.493Z,18.87
2023-05-10T14:45:46.446Z,18.74
2023-05-10T14:48:18.352Z,18.57
2023-05-10T14:50:50.745Z,18.35
2023-05-10T14:53:20.409Z,18.14
2023-05-10T14:55:52.832Z,17.99
2023-05-10T14:58:22.537Z,17.85
2023-05-10T15:00:52.206Z,17.71
2023-05-10T15:03:22.484Z,17.64
2023-05-10T15:05:52.794Z,17.56
2023-05-10T15:08:22.833Z,17.47
2023-05-10T15:10:56.723Z,17.38
2023-05-10T15:13:26.215Z,17.28
2023-05-10T15:15:56.037Z,17.19
2023-05-10T15:18:25.783Z,17.11
2023-05-10T15:20:56.429Z,17.06
2023-05-10T15:23:26.448Z,17.05
2023-05-10T15:25:58.784Z,17.11
2023-05-10T15:28:28.594Z,17.17
2023-05-10T15:30:58.774Z,17.29
2023-05-10T15:33:28.817Z,17.41
2023-05-10T15:35:58.957Z,17.55
2023-05-10T15:38:28.799Z,17.74
2023-05-10T15:41:02.437Z,17.93
2023-05-10T15:43:32.082Z,18.18
2023-05-10T15:46:01.967Z,18.40
2023-05-10T15:48:32.477Z,18.54
2023-05-10T15:51:02.173Z,18.60
2023-05-10T15:53:31.934Z,18.65
2023-05-10T15:56:04.352Z,18.70
2023-05-10T15:58:34.048Z,18.71
2023-05-10T16:01:04.303Z,18.73
2023-05-10T16:03:35.330Z,18.71
2023-05-10T16:06:07.084Z,18.65
2023-05-10T16:08:36.984Z,18.56
2023-05-10T16:11:10.531Z,18.49
2023-05-10T16:13:40.209Z,18.42
2023-05-10T16:16:11.301Z,18.41
2023-05-10T16:18:42.031Z,18.42
2023-05-10T16:21:11.899Z,18.47
2023-05-10T16:23:41.565Z,18.49
2023-05-10T16:26:13.850Z,18.48
2023-05-10T16:28:43.636Z,18.45
2023-05-10T16:31:13.955Z,18.41
2023-05-10T16:33:43.799Z,18.41
2023-05-10T16:36:13.523Z,18.41
2023-05-10T16:38:43.193Z,18.40
2023-05-10T16:41:15.741Z,18.39
2023-05-10T16:43:45.747Z,18.36
2023-05-10T16:46:15.732Z,18.27
2023-05-10T16:48:45.384Z,18.18
2023-05-10T16:51:15.412Z,18.10
2023-05-10T16:53:45.080Z,18.00
2023-05-10T16:56:18.454Z,17.87
2023-05-10T16:58:50.076Z,17.75
2023-05-10T17:01:19.909Z,17.61
2023-05-10T17:03:49.817Z,17.38
2023-05-10T17:06:19.629Z,17.01
2023-05-10T17:08:49.662Z,16.54
2023-05-10T17:11:22.428Z,16.10
2023-05-10T17:13:52.565Z,15.74
2023-05-10T17:16:22.589Z,15.45
2023-05-10T17:18:52.487Z,15.20
2023-05-10T17:21:22.274Z,15.01
2023-05-10T17:23:51.895Z,14.85
2023-05-10T17:26:24.123Z,14.69
2023-05-10T17:28:55.776Z,14.55
2023-05-10T17:31:26.673Z,14.37
2023-05-10T17:33:56.342Z,14.21
2023-05-10T17:36:26.010Z,14.10
2023-05-10T17:38:55.688Z,14.01
2023-05-10T17:41:27.972Z,13.92
2023-05-10T17:43:57.709Z,13.84
2023-05-10T17:46:27.454Z,13.78
2023-05-10T17:48:57.157Z,13.73
2023-05-10T17:51:27.050Z,13.71
2023-05-10T17:53:56.690Z,13.70
2023-05-10T17:56:29.139Z,13.71
2023-05-10T17:58:58.824Z,13.70
2023-05-10T18:01:28.527Z,13.65
2023-05-10T18:03:58.214Z,13.56
2023-05-10T18:06:28.216Z,13.46
2023-05-10T18:08:58.027Z,13.27
2023-05-10T18:11:30.298Z,13.09
2023-05-10T18:13:59.916Z,12.93
2023-05-10T18:16:33.132Z,12.80
2023-05-10T18:19:05.942Z,12.72
2023-05-10T18:21:35.772Z,12.67
2023-05-10T18:24:09.399Z,12.58
2023-05-10T18:26:42.173Z,12.48
2023-05-10T18:29:12.014Z,12.40
2023-05-10T18:31:41.948Z,12.34
2023-05-10T18:34:11.733Z,12.31
2023-05-10T18:36:43.701Z,12.29
2023-05-10T18:39:13.568Z,12.29
2023-05-10T18:41:45.854Z,12.30
2023-05-10T18:44:15.633Z,12.29
2023-05-10T18:46:45.367Z,12.29
2023-05-10T18:49:15.137Z,12.28
2023-05-10T18:51:44.837Z,12.27
2023-05-10T18:54:14.463Z,12.27
2023-05-10T18:56:47.455Z,12.27
2023-05-10T18:59:17.143Z,12.27
2023-05-10T19:01:47.491Z,12.23
2023-05-10T19:04:18.600Z,12.20
2023-05-10T19:06:48.283Z,12.19
2023-05-10T19:09:20.245Z,12.16
2023-05-10T19:11:53.627Z,12.14
2023-05-10T19:14:25.026Z,12.10
2023-05-10T19:16:54.774Z,12.09
2023-05-10T19:19:24.760Z,12.07
2023-05-10T19:21:56.861Z,12.06
2023-05-10T19:24:26.563Z,12.05
2023-05-10T19:27:01.293Z,12.03
2023-05-10T19:29:31.633Z,12.02
2023-05-10T19:32:01.443Z,12.01
2023-05-10T19:34:31.209Z,12.01
2023-05-10T19:37:01.255Z,12.00
2023-05-10T19:39:32.768Z,12.01
2023-05-10T19:42:05.466Z,12.01
2023-05-10T19:44:35.123Z,12.02
2023-05-10T19:47:05.355Z,12.02
2023-05-10T19:49:36.335Z,12.04
2023-05-10T19:52:07.936Z,12.08
2023-05-10T19:54:38.233Z,12.10
2023-05-10T19:57:12.092Z,12.11
2023-05-10T19:59:43.084Z,12.12
2023-05-10T20:02:12.750Z,12.14
2023-05-10T20:04:42.470Z,12.15
2023-05-10T20:07:12.565Z,12.15
2023-05-10T20:09:42.217Z,12.17
2023-05-10T20:12:14.747Z,12.17
2023-05-10T20:14:44.696Z,12.18
2023-05-10T20:17:14.475Z,12.19
2023-05-10T20:19:44.160Z,12.20
2023-05-10T20:22:13.877Z,12.22
2023-05-10T20:24:43.512Z,12.22
2023-05-10T20:27:15.860Z,12.22
2023-05-10T20:29:45.505Z,12.21
2023-05-10T20:32:15.173Z,12.21
2023-05-10T20:34:44.873Z,12.20
2023-05-10T20:37:14.580Z,12.18
2023-05-10T20:39:44.456Z,12.18
2023-05-10T20:42:16.725Z,12.16
2023-05-10T20:44:46.961Z,12.15
2023-05-10T20:47:17.091Z,12.13
2023-05-10T20:49:47.156Z,12.08
2023-05-10T20:52:17.013Z,12.06
2023-05-10T20:54:46.797Z,12.00
2023-05-10T20:57:19.042Z,11.98
2023-05-10T20:59:48.698Z,11.95
2023-05-10T21:02:18.401Z,11.96
2023-05-10T21:04:48.033Z,11.95
2023-05-10T21:07:18.008Z,11.95
2023-05-10T21:09:47.635Z,11.97
2023-05-10T21:12:19.904Z,11.97
2023-05-10T21:14:49.554Z,11.97
2023-05-10T21:17:20.208Z,11.97
2023-05-10T21:19:50.514Z,11.98
2023-05-10T21:22:20.258Z,11.98
2023-05-10T21:24:50.068Z,11.98
2023-05-10T21:27:22.296Z,11.98
2023-05-10T21:29:52.279Z,11.97
2023-05-10T21:32:21.997Z,11.98
2023-05-10T21:34:51.710Z,11.99
2023-05-10T21:37:21.500Z,11.99
2023-05-10T21:39:52.944Z,11.99
2023-05-10T21:42:25.316Z,11.99
2023-05-10T21:44:54.978Z,11.98
2023-05-10T21:47:24.903Z,11.96
2023-05-10T21:49:54.567Z,11.94
2023-05-10T21:52:24.221Z,11.92
2023-05-10T21:54:53.986Z,11.89
2023-05-10T21:57:26.235Z,11.86
2023-05-10T21:59:56.060Z,11.84
2023-05-10T22:02:25.932Z,11.82
2023-05-10T22:04:55.892Z,11.82
2023-05-10T22:07:25.580Z,11.82
2023-05-10T22:09:55.253Z,11.80
2023-05-10T22:12:27.789Z,11.78
2023-05-10T22:15:09.403Z,11.77
2023-05-10T22:17:40.858Z,11.76
2023-05-10T22:20:11.988Z,11.73
2023-05-10T22:22:41.666Z,11.67
2023-05-10T22:25:11.878Z,11.61
2023-05-10T22:27:44.136Z,11.55
2023-05-10T22:30:14.860Z,11.48
2023-05-10T22:32:44.578Z,11.40
2023-05-10T22:35:14.275Z,11.33
2023-05-10T22:37:43.950Z,11.28
2023-05-10T22:40:15.111Z,11.24
2023-05-10T22:42:47.469Z,11.23
2023-05-10T22:45:17.156Z,11.23
2023-05-10T22:47:47.372Z,11.24
2023-05-10T22:50:17.471Z,11.26
2023-05-10T22:52:47.254Z,11.27
2023-05-10T22:55:16.973Z,11.31
2023-05-10T22:57:49.249Z,11.34
2023-05-10T23:00:19.913Z,11.36
2023-05-10T23:02:49.865Z,11.40
2023-05-10T23:05:19.815Z,11.41
2023-05-10T23:07:53.386Z,11.44
2023-05-10T23:10:23.127Z,11.43
2023-05-10T23:12:55.938Z,11.46
2023-05-10T23:15:25.669Z,11.49
2023-05-10T23:17:55.429Z,11.51
2023-05-10T23:20:25.246Z,11.55
2023-05-10T23:22:54.924Z,11.58
2023-05-10T23:25:24.690Z,11.59
2023-05-10T23:27:57.040Z,11.62
2023-05-10T23:30:26.995Z,11.64
2023-05-10T23:32:56.980Z,11.66
2023-05-10T23:35:26.734Z,11.69
2023-05-10T23:37:56.391Z,11.73
2023-05-10T23:40:26.673Z,11.77
2023-05-10T23:42:58.901Z,11.80
2023-05-10T23:45:28.695Z,11.82
2023-05-10T23:47:58.430Z,11.84
2023-05-10T23:50:28.169Z,11.87
2023-05-10T23:52:57.833Z,11.89
2023-05-10T23:55:27.562Z,11.92
2023-05-10T23:57:59.846Z,11.93
